Time;durP1;ratioP1;P1;durP2;ratioP2;P2;SDS_P1;SDS_P2;PMS_P1;PMS_P2;Temp;Humidity;BMP_temperature;BMP_pressure;BME280_temperature;BME280_humidity;BME280_pressure;Samples;Min_cycle;Max_cycle;Signal;HPM_P1;HPM_P2
2023/05/03 00:02:04;;;;;;;10.23;3.97;;;;;;;;;;5038466;28;20029;-79
2023/05/03 00:04:30;;;;;;;7.50;3.50;;;;;;;;;;5039742;28;20481;-79
2023/05/03 00:06:56;;;;;;;14.00;3.63;;;;;;;;;;5032949;28;20497;-79
2023/05/03 00:09:21;;;;;;;14.93;3.97;;;;;;;;;;5035076;28;20040;-79
2023/05/03 00:11:47;;;;;;;10.30;3.45;;;;;;;;;;5036103;28;20033;-80
2023/05/03 00:14:12;;;;;;;12.00;3.65;;;;;;;;;;5040332;28;20472;-80
2023/05/03 00:16:37;;;;;;;12.77;3.70;;;;;;;;;;5039849;28;20125;-80
2023/05/03 00:19:03;;;;;;;10.05;3.97;;;;;;;;;;5034205;28;20073;-80
2023/05/03 00:21:28;;;;;;;11.45;3.47;;;;;;;;;;5032969;28;20451;-79
2023/05/03 00:23:54;;;;;;;13.55;4.50;;;;;;;;;;5050001;28;20068;-80
2023/05/03 00:26:20;;;;;;;9.55;3.78;;;;;;;;;;5040509;28;20044;-79
2023/05/03 00:28:45;;;;;;;6.03;3.08;;;;;;;;;;5036843;28;20120;-80
2023/05/03 00:31:11;;;;;;;7.57;3.42;;;;;;;;;;5033652;28;20056;-79
2023/05/03 00:33:37;;;;;;;11.07;3.83;;;;;;;;;;5037269;28;20026;-80
2023/05/03 00:36:09;;;;;;;7.60;4.28;;;;;;;;;;5030757;28;20129;-80
2023/05/03 00:38:35;;;;;;;12.73;3.70;;;;;;;;;;5055769;28;20104;-80
2023/05/03 00:41:02;;;;;;;10.43;3.58;;;;;;;;;;5051853;28;20053;-79
2023/05/03 00:43:28;;;;;;;9.65;3.95;;;;;;;;;;5040837;28;20048;-79
2023/05/03 00:45:53;;;;;;;9.95;3.35;;;;;;;;;;5037833;28;20041;-80
2023/05/03 00:48:19;;;;;;;5.88;2.92;;;;;;;;;;5036712;28;20036;-79
2023/05/03 00:50:46;;;;;;;9.32;3.72;;;;;;;;;;5054039;28;20072;-79
2023/05/03 00:53:11;;;;;;;14.10;4.38;;;;;;;;;;5070920;28;20473;-79
2023/05/03 00:55:36;;;;;;;11.80;3.33;;;;;;;;;;5041143;28;20047;-79
2023/05/03 00:58:03;;;;;;;12.32;3.55;;;;;;;;;;5054840;28;20052;-79
2023/05/03 01:00:28;;;;;;;9.55;3.80;;;;;;;;;;5049321;28;20041;-80
2023/05/03 01:02:54;;;;;;;7.45;3.55;;;;;;;;;;5036615;28;20436;-79
2023/05/03 01:05:21;;;;;;;9.80;3.80;;;;;;;;;;5047025;28;20048;-80
2023/05/03 01:08:08;;;;;;;10.32;3.65;;;;;;;;;;5044893;28;20044;-79
2023/05/03 01:10:41;;;;;;;5.82;3.30;;;;;;;;;;5039562;28;20485;-79
2023/05/03 01:13:24;;;;;;;9.97;3.47;;;;;;;;;;5030993;28;20060;-80
2023/05/03 01:16:22;;;;;;;10.77;3.47;;;;;;;;;;5040946;28;20406;-80
2023/05/03 01:18:48;;;;;;;9.60;3.55;;;;;;;;;;5032314;28;20064;-79
2023/05/03 01:21:17;;;;;;;10.75;4.00;;;;;;;;;;5038319;28;20040;-79
2023/05/03 01:23:50;;;;;;;8.63;3.50;;;;;;;;;;5038817;28;20105;-79
2023/05/03 01:26:23;;;;;;;5.22;2.95;;;;;;;;;;5041469;28;20489;-78
2023/05/03 01:28:49;;;;;;;9.80;3.55;;;;;;;;;;5034948;28;20033;-79
2023/05/03 01:31:21;;;;;;;11.68;3.28;;;;;;;;;;5042133;28;20037;-79
2023/05/03 01:34:01;;;;;;;11.95;3.30;;;;;;;;;;5044601;28;20041;-79
2023/05/03 01:36:32;;;;;;;9.57;3.30;;;;;;;;;;5040642;28;20044;-79
2023/05/03 01:39:02;;;;;;;11.38;3.13;;;;;;;;;;5048759;28;20041;-79
2023/05/03 01:41:28;;;;;;;7.45;3.00;;;;;;;;;;5030313;28;20047;-79
2023/05/03 01:43:54;;;;;;;10.30;3.47;;;;;;;;;;5036105;28;20033;-79
2023/05/03 01:46:19;;;;;;;10.63;3.42;;;;;;;;;;5035735;28;20060;-80
2023/05/03 01:48:46;;;;;;;6.80;3.33;;;;;;;;;;5042845;28;20091;-80
2023/05/03 01:51:11;;;;;;;6.00;2.70;;;;;;;;;;5040742;28;20038;-79
2023/05/03 01:53:37;;;;;;;10.90;3.60;;;;;;;;;;5042131;28;20108;-79
2023/05/03 01:56:02;;;;;;;7.88;3.70;;;;;;;;;;5045061;28;20562;-79
2023/05/03 01:58:28;;;;;;;7.70;3.40;;;;;;;;;;5048907;28;20040;-79
2023/05/03 02:00:53;;;;;;;10.77;3.58;;;;;;;;;;5042487;28;20037;-79
2023/05/03 02:03:19;;;;;;;6.35;3.20;;;;;;;;;;5041488;28;20036;-79
2023/05/03 02:05:45;;;;;;;6.20;2.47;;;;;;;;;;5036049;28;20041;-79
2023/05/03 02:08:10;;;;;;;6.68;3.20;;;;;;;;;;5050466;28;20056;-80
2023/05/03 02:10:35;;;;;;;7.88;3.17;;;;;;;;;;5045511;28;20060;-79
2023/05/03 02:13:02;;;;;;;11.05;2.78;;;;;;;;;;5042556;28;20095;-79
2023/05/03 02:15:27;;;;;;;13.50;2.92;;;;;;;;;;5036203;28;20040;-79
2023/05/03 02:17:54;;;;;;;9.07;3.03;;;;;;;;;;5039713;28;20116;-79
2023/05/03 02:20:20;;;;;;;5.72;2.95;;;;;;;;;;5037200;28;20091;-79
2023/05/03 02:22:45;;;;;;;9.20;3.28;;;;;;;;;;5049739;28;20037;-80
2023/05/03 02:25:10;;;;;;;14.15;3.22;;;;;;;;;;5045409;28;20068;-80
2023/05/03 02:27:36;;;;;;;6.90;2.65;;;;;;;;;;5044010;28;20045;-79
2023/05/03 02:30:01;;;;;;;5.65;2.78;;;;;;;;;;5053085;28;20483;-80
2023/05/03 02:32:27;;;;;;;8.73;2.92;;;;;;;;;;5039852;28;20038;-79
2023/05/03 02:34:52;;;;;;;12.35;2.95;;;;;;;;;;5039751;28;20080;-79
2023/05/03 02:37:18;;;;;;;10.13;3.25;;;;;;;;;;5044342;28;20469;-79
2023/05/03 02:39:43;;;;;;;8.65;3.20;;;;;;;;;;5044686;28;20461;-80
2023/05/03 02:42:08;;;;;;;10.82;2.92;;;;;;;;;;5040971;28;20037;-79
2023/05/03 02:44:34;;;;;;;5.88;2.65;;;;;;;;;;5050067;28;20029;-79
2023/05/03 02:46:59;;;;;;;14.13;3.72;;;;;;;;;;5037226;28;20405;-80
2023/05/03 02:49:25;;;;;;;12.05;2.95;;;;;;;;;;5035323;28;20029;-79
2023/05/03 02:51:51;;;;;;;7.53;3.42;;;;;;;;;;5039031;28;20101;-79
2023/05/03 02:54:17;;;;;;;17.27;3.22;;;;;;;;;;5046055;28;20382;-79
2023/05/03 02:56:42;;;;;;;10.35;3.67;;;;;;;;;;5040114;28;20113;-80
2023/05/03 02:59:08;;;;;;;16.42;3.67;;;;;;;;;;5036930;28;20033;-79
2023/05/03 03:01:33;;;;;;;10.32;3.38;;;;;;;;;;5034206;28;20041;-79
2023/05/03 03:03:59;;;;;;;17.63;3.95;;;;;;;;;;5035769;28;20389;-79
2023/05/03 03:06:24;;;;;;;8.88;3.50;;;;;;;;;;5039801;28;20056;-80
2023/05/03 03:08:50;;;;;;;9.18;3.45;;;;;;;;;;5040272;28;20469;-79
2023/05/03 03:11:15;;;;;;;9.00;3.53;;;;;;;;;;5041993;28;20472;-80
2023/05/03 03:13:41;;;;;;;14.50;3.70;;;;;;;;;;5036877;28;20044;-79
2023/05/03 03:16:07;;;;;;;13.77;4.05;;;;;;;;;;5034002;28;20546;-79
2023/05/03 03:18:33;;;;;;;11.77;3.70;;;;;;;;;;5034891;28;20045;-79
2023/05/03 03:21:00;;;;;;;14.20;3.85;;;;;;;;;;5035387;28;20478;-79
2023/05/03 03:23:25;;;;;;;10.23;3.60;;;;;;;;;;5049433;28;20041;-79
2023/05/03 03:25:50;;;;;;;11.65;3.47;;;;;;;;;;5038052;28;20104;-78
2023/05/03 03:28:16;;;;;;;11.77;3.55;;;;;;;;;;5036391;28;20065;-80
2023/05/03 03:30:41;;;;;;;13.90;3.10;;;;;;;;;;5046909;28;20045;-79
2023/05/03 03:33:07;;;;;;;17.27;3.67;;;;;;;;;;5037314;28;20037;-80
2023/05/03 03:35:32;;;;;;;15.23;3.72;;;;;;;;;;5042851;28;20037;-79
2023/05/03 03:37:58;;;;;;;9.80;3.60;;;;;;;;;;5035795;28;20040;-79
2023/05/03 03:40:23;;;;;;;11.35;3.35;;;;;;;;;;5049933;28;20485;-79
2023/05/03 03:42:48;;;;;;;10.20;3.25;;;;;;;;;;5052040;28;20033;-80
2023/05/03 03:45:14;;;;;;;8.68;3.58;;;;;;;;;;5048028;28;20044;-79
2023/05/03 03:47:39;;;;;;;10.07;3.08;;;;;;;;;;5042362;28;20400;-80
2023/05/03 03:50:05;;;;;;;14.77;3.17;;;;;;;;;;5041440;28;20377;-79
2023/05/03 03:52:30;;;;;;;12.40;3.95;;;;;;;;;;5044482;28;20636;-79
2023/05/03 03:54:56;;;;;;;10.30;3.80;;;;;;;;;;5039243;28;20060;-79
2023/05/03 03:57:23;;;;;;;6.22;3.50;;;;;;;;;;5042756;28;20037;-78
2023/05/03 03:59:50;;;;;;;8.52;3.05;;;;;;;;;;5042276;28;20033;-80
2023/05/03 04:02:15;;;;;;;11.73;3.72;;;;;;;;;;5033132;28;20116;-79
2023/05/03 04:04:40;;;;;;;13.55;3.72;;;;;;;;;;5037759;28;20532;-79
2023/05/03 04:07:07;;;;;;;7.00;3.40;;;;;;;;;;5037199;28;20156;-80
2023/05/03 04:09:33;;;;;;;9.63;3.40;;;;;;;;;;5044890;28;20116;-80
2023/05/03 04:11:58;;;;;;;15.05;3.58;;;;;;;;;;5041159;28;20108;-79
2023/05/03 04:14:23;;;;;;;7.32;3.20;;;;;;;;;;5036958;28;20099;-79
2023/05/03 04:16:49;;;;;;;12.27;3.25;;;;;;;;;;5037062;28;20138;-79
2023/05/03 04:19:17;;;;;;;11.70;2.97;;;;;;;;;;5045779;28;20033;-79
2023/05/03 04:21:43;;;;;;;9.52;2.97;;;;;;;;;;5044661;28;20057;-79
2023/05/03 04:24:08;;;;;;;9.73;3.47;;;;;;;;;;5047835;28;20072;-80
2023/05/03 04:26:34;;;;;;;9.35;3.40;;;;;;;;;;5025116;28;20057;-79
2023/05/03 04:28:59;;;;;;;14.60;3.60;;;;;;;;;;5042521;28;20480;-80
2023/05/03 04:31:25;;;;;;;6.45;3.22;;;;;;;;;;5037467;28;20042;-79
2023/05/03 04:33:51;;;;;;;12.73;3.10;;;;;;;;;;5040641;28;20072;-79
2023/05/03 04:36:17;;;;;;;18.15;3.00;;;;;;;;;;5035946;28;20064;-79
2023/05/03 04:38:43;;;;;;;16.98;3.72;;;;;;;;;;5049718;28;20067;-79
2023/05/03 04:41:08;;;;;;;7.13;3.08;;;;;;;;;;5038765;28;20918;-79
2023/05/03 04:43:34;;;;;;;14.23;3.50;;;;;;;;;;5054281;28;20044;-80
2023/05/03 04:46:01;;;;;;;10.55;3.28;;;;;;;;;;5050108;28;20040;-79
2023/05/03 04:48:26;;;;;;;14.00;3.58;;;;;;;;;;5037515;28;20033;-79
2023/05/03 04:50:52;;;;;;;8.60;2.97;;;;;;;;;;5049157;28;20041;-79
2023/05/03 04:53:17;;;;;;;11.57;3.17;;;;;;;;;;5055448;28;20033;-80
2023/05/03 04:55:42;;;;;;;6.95;3.17;;;;;;;;;;5040791;28;20489;-79
2023/05/03 04:58:08;;;;;;;7.88;3.17;;;;;;;;;;5044990;28;20044;-80
2023/05/03 05:00:33;;;;;;;7.68;3.33;;;;;;;;;;5039004;28;20124;-79
2023/05/03 05:02:59;;;;;;;8.93;3.47;;;;;;;;;;5038533;28;20362;-79
2023/05/03 05:05:25;;;;;;;11.88;3.15;;;;;;;;;;5037847;28;20135;-79
2023/05/03 05:07:50;;;;;;;12.35;3.60;;;;;;;;;;5044983;28;20488;-79
2023/05/03 05:10:16;;;;;;;14.98;2.78;;;;;;;;;;5041106;28;20511;-79
2023/05/03 05:12:41;;;;;;;7.68;2.95;;;;;;;;;;5045907;28;20421;-79
2023/05/03 05:15:07;;;;;;;8.85;3.22;;;;;;;;;;5041435;28;20481;-79
2023/05/03 05:17:33;;;;;;;8.93;2.97;;;;;;;;;;5037970;28;20026;-79
2023/05/03 05:19:59;;;;;;;11.23;3.35;;;;;;;;;;5038716;28;20045;-79
2023/05/03 05:22:24;;;;;;;9.65;3.00;;;;;;;;;;5043971;28;20033;-79
2023/05/03 05:24:50;;;;;;;6.78;2.92;;;;;;;;;;5042002;28;20457;-79
2023/05/03 05:27:15;;;;;;;5.93;2.30;;;;;;;;;;5041294;28;20041;-79
2023/05/03 05:29:41;;;;;;;12.25;2.42;;;;;;;;;;5044766;28;20049;-79
2023/05/03 05:32:06;;;;;;;7.78;2.47;;;;;;;;;;5047379;28;20493;-80
2023/05/03 05:34:32;;;;;;;9.25;3.15;;;;;;;;;;5045455;28;20041;-79
2023/05/03 05:36:57;;;;;;;7.60;2.20;;;;;;;;;;5047053;28;20215;-79
2023/05/03 05:39:22;;;;;;;6.32;2.22;;;;;;;;;;5037371;28;20036;-78
2023/05/03 05:41:48;;;;;;;5.07;1.90;;;;;;;;;;5042143;28;20037;-80
2023/05/03 05:44:13;;;;;;;6.75;2.28;;;;;;;;;;5047041;28;20041;-80
2023/05/03 05:46:39;;;;;;;3.42;1.98;;;;;;;;;;5039630;28;20370;-79
2023/05/03 05:49:05;;;;;;;5.63;2.15;;;;;;;;;;5041073;28;20041;-79
2023/05/03 05:51:30;;;;;;;5.93;1.90;;;;;;;;;;5043704;28;20558;-80
2023/05/03 05:53:56;;;;;;;4.63;1.75;;;;;;;;;;5052226;28;20053;-80
2023/05/03 05:56:21;;;;;;;5.97;1.60;;;;;;;;;;5039047;28;20361;-80
2023/05/03 05:58:47;;;;;;;4.18;1.60;;;;;;;;;;5044336;28;20083;-80
2023/05/03 06:01:13;;;;;;;5.00;2.10;;;;;;;;;;5035648;28;20470;-80
2023/05/03 06:03:38;;;;;;;4.60;1.60;;;;;;;;;;5039428;28;20061;-80
2023/05/03 06:06:03;;;;;;;4.72;1.70;;;;;;;;;;5041882;28;20485;-80
2023/05/03 06:08:29;;;;;;;3.85;1.50;;;;;;;;;;5041557;28;20029;-80
2023/05/03 06:10:54;;;;;;;4.05;1.50;;;;;;;;;;5041514;28;20496;-81
2023/05/03 06:13:20;;;;;;;4.00;1.30;;;;;;;;;;5034886;28;20051;-79
2023/05/03 06:15:46;;;;;;;4.50;1.67;;;;;;;;;;5039063;28;20555;-81
2023/05/03 06:18:11;;;;;;;6.18;1.55;;;;;;;;;;5053275;28;20041;-81
2023/05/03 06:20:37;;;;;;;5.45;1.70;;;;;;;;;;5037384;28;20105;-81
2023/05/03 06:23:02;;;;;;;4.20;1.30;;;;;;;;;;5062071;28;20029;-80
2023/05/03 06:25:27;;;;;;;3.00;1.30;;;;;;;;;;5036664;28;20405;-81
2023/05/03 06:27:53;;;;;;;6.72;1.63;;;;;;;;;;5036763;28;20069;-81
2023/05/03 06:30:18;;;;;;;5.05;1.77;;;;;;;;;;5049415;28;20052;-81
2023/05/03 06:32:46;;;;;;;6.10;1.70;;;;;;;;;;5034910;28;20124;-81
2023/05/03 06:35:11;;;;;;;5.15;1.58;;;;;;;;;;5041468;28;20041;-80
2023/05/03 06:37:37;;;;;;;3.85;1.73;;;;;;;;;;5042456;28;20029;-81
2023/05/03 06:40:02;;;;;;;4.05;1.52;;;;;;;;;;5046359;28;20037;-81
2023/05/03 06:42:28;;;;;;;5.72;1.92;;;;;;;;;;5035209;28;20034;-81
2023/05/03 06:44:53;;;;;;;5.25;1.60;;;;;;;;;;5036994;28;20071;-81
2023/05/03 06:47:21;;;;;;;6.32;1.70;;;;;;;;;;5034263;28;20465;-81
2023/05/03 06:49:47;;;;;;;4.10;1.90;;;;;;;;;;5035717;28;20405;-81
2023/05/03 06:52:12;;;;;;;3.53;1.50;;;;;;;;;;5045313;28;20036;-81
2023/05/03 06:54:39;;;;;;;2.80;1.40;;;;;;;;;;5035728;28;20140;-82
2023/05/03 06:57:04;;;;;;;5.32;1.63;;;;;;;;;;5029376;28;20039;-81
2023/05/03 06:59:30;;;;;;;4.78;1.58;;;;;;;;;;5037332;28;20037;-81
2023/05/03 07:01:55;;;;;;;8.82;1.80;;;;;;;;;;5034809;28;20065;-81
2023/05/03 07:04:21;;;;;;;6.13;1.50;;;;;;;;;;5039757;28;20029;-81
2023/05/03 07:06:46;;;;;;;3.55;1.60;;;;;;;;;;5064900;28;20143;-81
2023/05/03 07:09:11;;;;;;;3.45;1.20;;;;;;;;;;5047257;28;20438;-81
2023/05/03 07:11:39;;;;;;;8.88;2.03;;;;;;;;;;5037049;28;20033;-81
2023/05/03 07:14:04;;;;;;;3.80;1.30;;;;;;;;;;5037750;28;20067;-81
2023/05/03 07:16:30;;;;;;;3.03;1.30;;;;;;;;;;5040412;28;20057;-81
2023/05/03 07:18:55;;;;;;;4.82;1.60;;;;;;;;;;5043107;28;20497;-81
2023/05/03 07:21:20;;;;;;;4.35;1.70;;;;;;;;;;5034363;28;20030;-81
2023/05/03 07:23:46;;;;;;;3.42;1.38;;;;;;;;;;5037764;28;20041;-82
2023/05/03 07:26:11;;;;;;;5.85;1.75;;;;;;;;;;5034479;28;20167;-81
2023/05/03 07:28:36;;;;;;;4.70;1.48;;;;;;;;;;5048292;28;20063;-82
2023/05/03 07:31:03;;;;;;;5.95;1.73;;;;;;;;;;5049484;28;20045;-82
2023/05/03 07:33:29;;;;;;;4.38;1.52;;;;;;;;;;5043659;28;20036;-82
2023/05/03 07:35:54;;;;;;;5.00;1.50;;;;;;;;;;5050085;28;20026;-79
2023/05/03 07:38:19;;;;;;;3.08;1.40;;;;;;;;;;5038893;28;20107;-82
2023/05/03 07:40:45;;;;;;;5.03;1.75;;;;;;;;;;5038522;28;20045;-81
2023/05/03 07:43:11;;;;;;;5.38;1.50;;;;;;;;;;5039346;28;20022;-81
2023/05/03 07:45:37;;;;;;;3.40;1.35;;;;;;;;;;5042767;28;20532;-81
2023/05/03 07:48:05;;;;;;;3.97;1.50;;;;;;;;;;5022956;28;20041;-81
2023/05/03 07:50:31;;;;;;;3.75;1.50;;;;;;;;;;5045890;28;20041;-78
2023/05/03 07:52:56;;;;;;;3.22;1.40;;;;;;;;;;5050008;28;20473;-81
2023/05/03 07:55:22;;;;;;;3.10;1.40;;;;;;;;;;5042041;28;20049;-80
2023/05/03 07:57:48;;;;;;;4.43;1.50;;;;;;;;;;5040495;28;20369;-81
2023/05/03 08:00:14;;;;;;;5.60;1.60;;;;;;;;;;5046373;28;20041;-81
2023/05/03 08:02:40;;;;;;;3.47;1.40;;;;;;;;;;5035588;28;20041;-81
2023/05/03 08:05:07;;;;;;;3.97;1.60;;;;;;;;;;5037963;28;20040;-81
2023/05/03 08:07:32;;;;;;;3.30;1.40;;;;;;;;;;5019369;28;20945;-80
2023/05/03 08:09:58;;;;;;;4.95;1.50;;;;;;;;;;5034767;28;20037;-80
2023/05/03 08:12:27;;;;;;;4.15;1.70;;;;;;;;;;5036909;28;20064;-81
2023/05/03 08:14:54;;;;;;;5.00;1.83;;;;;;;;;;5043686;28;20072;-81
2023/05/03 08:17:20;;;;;;;3.00;1.38;;;;;;;;;;5035359;28;20045;-81
2023/05/03 08:19:46;;;;;;;4.22;1.63;;;;;;;;;;5033925;28;20139;-82
2023/05/03 08:22:11;;;;;;;8.73;2.03;;;;;;;;;;5036697;28;20116;-80
2023/05/03 08:24:37;;;;;;;5.75;1.90;;;;;;;;;;5032971;28;20041;-81
2023/05/03 08:27:04;;;;;;;5.32;1.55;;;;;;;;;;5027096;28;20654;-81
2023/05/03 08:29:30;;;;;;;6.70;2.03;;;;;;;;;;5044501;28;20068;-81
2023/05/03 08:31:57;;;;;;;4.00;1.58;;;;;;;;;;5048959;28;20098;-81
2023/05/03 08:34:22;;;;;;;3.78;1.73;;;;;;;;;;5043620;28;20215;-82
2023/05/03 08:36:48;;;;;;;5.90;2.00;;;;;;;;;;5027082;28;20499;-81
2023/05/03 08:39:14;;;;;;;5.40;2.00;;;;;;;;;;5027995;28;20071;-81
2023/05/03 08:41:40;;;;;;;5.03;1.90;;;;;;;;;;5035767;28;20030;-82
2023/05/03 08:44:07;;;;;;;3.97;1.95;;;;;;;;;;5036686;28;20041;-81
2023/05/03 08:46:35;;;;;;;4.60;1.85;;;;;;;;;;5029560;28;20055;-81
2023/05/03 08:49:02;;;;;;;5.70;2.03;;;;;;;;;;5029002;28;20037;-82
2023/05/03 08:51:27;;;;;;;4.60;1.80;;;;;;;;;;5038166;28;20051;-81
2023/05/03 08:53:53;;;;;;;4.30;1.77;;;;;;;;;;5041089;28;20124;-81
2023/05/03 08:56:40;;;;;;;3.85;1.70;;;;;;;;;;5043674;28;20473;-81
2023/05/03 08:59:08;;;;;;;3.85;1.58;;;;;;;;;;5056975;28;20041;-81
2023/05/03 09:01:41;;;;;;;6.45;1.73;;;;;;;;;;5046288;28;20037;-81
2023/05/03 09:04:07;;;;;;;4.80;1.63;;;;;;;;;;5062551;28;20094;-82
2023/05/03 09:06:33;;;;;;;5.25;1.95;;;;;;;;;;5040388;28;20037;-81
2023/05/03 09:09:00;;;;;;;5.95;1.80;;;;;;;;;;5039410;28;20063;-81
2023/05/03 09:11:28;;;;;;;8.80;1.75;;;;;;;;;;5040856;28;20041;-81
2023/05/03 09:13:54;;;;;;;6.78;1.95;;;;;;;;;;5032469;28;20392;-82
2023/05/03 09:16:26;;;;;;;6.60;2.20;;;;;;;;;;5058037;28;20036;-81
2023/05/03 09:19:01;;;;;;;5.85;2.20;;;;;;;;;;5044988;28;20052;-81
2023/05/03 09:21:30;;;;;;;4.07;1.90;;;;;;;;;;5037638;28;20030;-81
2023/05/03 09:23:55;;;;;;;5.13;1.80;;;;;;;;;;5045061;28;20041;-81
2023/05/03 09:26:32;;;;;;;6.15;2.08;;;;;;;;;;5042369;28;20452;-82
2023/05/03 09:29:00;;;;;;;5.28;2.13;;;;;;;;;;5046913;28;20408;-79
2023/05/03 09:31:27;;;;;;;4.32;1.95;;;;;;;;;;5061439;28;20033;-82
2023/05/03 09:33:52;;;;;;;8.35;2.15;;;;;;;;;;5063648;28;20033;-82
2023/05/03 09:36:18;;;;;;;4.95;2.10;;;;;;;;;;5046134;28;20120;-82
2023/05/03 09:38:43;;;;;;;4.20;1.80;;;;;;;;;;5029029;28;20075;-81
2023/05/03 09:41:09;;;;;;;4.03;1.90;;;;;;;;;;5044467;28;20037;-81
2023/05/03 09:43:35;;;;;;;5.20;2.03;;;;;;;;;;5032468;28;20092;-81
2023/05/03 09:46:11;;;;;;;5.60;1.92;;;;;;;;;;5032582;28;20037;-82
2023/05/03 09:48:37;;;;;;;5.15;1.90;;;;;;;;;;5032364;28;20041;-82
2023/05/03 09:51:06;;;;;;;8.02;2.50;;;;;;;;;;5035357;28;20041;-83
2023/05/03 09:53:33;;;;;;;5.70;2.15;;;;;;;;;;5042481;28;20044;-83
2023/05/03 09:56:01;;;;;;;7.93;1.83;;;;;;;;;;5050072;28;20052;-81
2023/05/03 09:58:29;;;;;;;3.60;2.10;;;;;;;;;;5019497;28;20508;-83
2023/05/03 10:00:55;;;;;;;4.93;2.22;;;;;;;;;;5046916;28;20132;-82
2023/05/03 10:03:49;;;;;;;3.80;2.05;;;;;;;;;;5035854;28;20044;-82
2023/05/03 10:06:17;;;;;;;6.22;2.33;;;;;;;;;;5023497;28;20042;-83
2023/05/03 10:08:48;;;;;;;5.95;2.33;;;;;;;;;;5037952;28;20041;-83
2023/05/03 10:11:16;;;;;;;4.38;2.10;;;;;;;;;;5031099;28;20041;-83
2023/05/03 10:13:41;;;;;;;5.43;2.13;;;;;;;;;;5031202;28;20067;-83
2023/05/03 10:16:13;;;;;;;6.97;2.30;;;;;;;;;;5037779;28;20042;-82
2023/05/03 10:18:52;;;;;;;8.95;2.17;;;;;;;;;;5030103;28;20052;-81
2023/05/03 10:21:28;;;;;;;5.25;2.38;;;;;;;;;;5029825;28;20133;-81
2023/05/03 10:24:14;;;;;;;5.80;2.20;;;;;;;;;;5031823;28;20041;-83
2023/05/03 10:26:41;;;;;;;5.20;2.08;;;;;;;;;;5034107;28;20045;-83
2023/05/03 10:29:36;;;;;;;6.22;2.10;;;;;;;;;;5040501;28;20033;-83
2023/05/03 10:32:05;;;;;;;5.78;2.28;;;;;;;;;;5044653;28;20495;-83
2023/05/03 10:34:31;;;;;;;8.00;2.22;;;;;;;;;;5037440;28;20059;-81
2023/05/03 10:37:01;;;;;;;5.43;2.20;;;;;;;;;;5035326;28;20040;-81
2023/05/03 10:39:27;;;;;;;5.70;2.22;;;;;;;;;;5038762;28;20116;-81
2023/05/03 10:42:01;;;;;;;6.70;2.50;;;;;;;;;;5037298;28;20493;-82
2023/05/03 10:44:34;;;;;;;6.25;2.80;;;;;;;;;;5064114;28;20095;-83
2023/05/03 10:47:09;;;;;;;5.28;2.78;;;;;;;;;;5041042;28;20037;-81
2023/05/03 10:49:34;;;;;;;5.30;2.17;;;;;;;;;;5041638;28;20044;-84
2023/05/03 10:52:00;;;;;;;3.35;1.58;;;;;;;;;;5033441;28;20037;-83
2023/05/03 10:54:25;;;;;;;5.57;2.42;;;;;;;;;;5038395;28;20044;-83
2023/05/03 10:56:53;;;;;;;6.45;2.22;;;;;;;;;;5032022;28;20033;-80
2023/05/03 10:59:18;;;;;;;6.88;2.17;;;;;;;;;;5050757;28;20033;-83
2023/05/03 11:01:45;;;;;;;5.50;2.10;;;;;;;;;;5029827;28;20056;-83
2023/05/03 11:04:18;;;;;;;4.97;2.60;;;;;;;;;;5059749;28;20554;-84
2023/05/03 11:06:47;;;;;;;5.93;2.38;;;;;;;;;;5053955;28;20144;-83
2023/05/03 11:09:13;;;;;;;6.78;2.30;;;;;;;;;;5029834;28;20370;-83
2023/05/03 11:11:40;;;;;;;5.10;2.50;;;;;;;;;;5025944;28;20060;-82
2023/05/03 11:14:07;;;;;;;6.25;2.35;;;;;;;;;;5028091;28;20037;-81
2023/05/03 11:16:33;;;;;;;5.93;2.83;;;;;;;;;;5031164;28;20033;-82
2023/05/03 11:18:59;;;;;;;4.60;1.90;;;;;;;;;;5045875;28;20067;-82
2023/05/03 11:21:25;;;;;;;5.15;1.90;;;;;;;;;;5054696;28;20034;-83
2023/05/03 11:23:50;;;;;;;5.50;2.30;;;;;;;;;;5041458;28;20095;-83
2023/05/03 11:26:15;;;;;;;5.30;2.10;;;;;;;;;;5029202;28;20124;-83
2023/05/03 11:28:42;;;;;;;3.90;1.88;;;;;;;;;;5036074;28;20078;-83
2023/05/03 11:31:09;;;;;;;3.55;2.20;;;;;;;;;;5033737;28;20440;-83
2023/05/03 11:33:36;;;;;;;3.15;1.77;;;;;;;;;;5030150;28;20048;-84
2023/05/03 11:36:03;;;;;;;2.45;1.40;;;;;;;;;;5036301;28;20033;-84
2023/05/03 11:38:32;;;;;;;3.53;1.75;;;;;;;;;;5044635;28;20048;-84
2023/05/03 11:40:58;;;;;;;5.00;1.88;;;;;;;;;;5057403;28;20378;-83
2023/05/03 11:43:25;;;;;;;7.07;1.85;;;;;;;;;;5013794;28;20039;-82
2023/05/03 11:45:53;;;;;;;5.03;1.70;;;;;;;;;;5030833;28;20111;-82
2023/05/03 11:48:19;;;;;;;4.90;2.00;;;;;;;;;;5033448;28;20037;-84
2023/05/03 11:50:55;;;;;;;7.93;1.55;;;;;;;;;;5039723;28;20106;-83
2023/05/03 11:53:24;;;;;;;3.72;1.88;;;;;;;;;;5035652;28;20045;-83
2023/05/03 11:55:52;;;;;;;5.63;1.80;;;;;;;;;;5043530;28;20057;-83
2023/05/03 11:58:22;;;;;;;4.80;2.00;;;;;;;;;;5061668;28;20049;-82
2023/05/03 12:00:49;;;;;;;3.95;1.90;;;;;;;;;;5017974;28;20037;-82
2023/05/03 12:03:25;;;;;;;4.38;1.80;;;;;;;;;;5052062;28;20052;-83
2023/05/03 12:05:54;;;;;;;3.85;1.95;;;;;;;;;;5042624;28;20044;-84
2023/05/03 12:08:20;;;;;;;4.70;1.80;;;;;;;;;;5039758;28;20041;-85
2023/05/03 12:10:49;;;;;;;6.00;2.20;;;;;;;;;;5036433;28;20029;-83
2023/05/03 12:13:26;;;;;;;5.95;2.40;;;;;;;;;;5032589;28;20550;-84
2023/05/03 12:15:57;;;;;;;5.55;1.90;;;;;;;;;;5040065;28;20382;-86
2023/05/03 12:18:22;;;;;;;5.30;2.08;;;;;;;;;;5022658;28;20041;-86
2023/05/03 12:20:56;;;;;;;2.45;1.55;;;;;;;;;;5057576;28;20053;-84
2023/05/03 12:23:21;;;;;;;3.00;1.90;;;;;;;;;;5048603;28;20591;-83
2023/05/03 12:25:47;;;;;;;3.92;1.67;;;;;;;;;;5057234;28;20128;-82
2023/05/03 12:28:13;;;;;;;5.40;1.92;;;;;;;;;;5030326;28;20053;-84
2023/05/03 12:30:38;;;;;;;3.97;1.90;;;;;;;;;;5039514;28;20041;-83
2023/05/03 12:33:03;;;;;;;6.03;2.53;;;;;;;;;;5032470;28;20049;-83
2023/05/03 12:35:29;;;;;;;4.15;1.55;;;;;;;;;;5033259;28;20037;-84
2023/05/03 12:37:54;;;;;;;4.78;2.00;;;;;;;;;;5042124;28;20040;-83
2023/05/03 12:40:23;;;;;;;4.20;2.10;;;;;;;;;;5035895;28;20045;-79
2023/05/03 12:42:48;;;;;;;3.90;2.20;;;;;;;;;;5031905;28;20087;-83
2023/05/03 12:45:14;;;;;;;4.13;1.95;;;;;;;;;;5042895;28;20533;-83
2023/05/03 12:47:40;;;;;;;3.03;1.63;;;;;;;;;;5048421;28;20040;-82
2023/05/03 12:50:08;;;;;;;4.35;1.85;;;;;;;;;;5042028;28;20064;-81
2023/05/03 12:52:33;;;;;;;4.38;2.00;;;;;;;;;;5032736;28;20048;-80
2023/05/03 12:54:59;;;;;;;6.28;2.00;;;;;;;;;;5026196;28;20046;-79
2023/05/03 12:57:24;;;;;;;6.85;1.77;;;;;;;;;;5036869;28;20064;-83
2023/05/03 12:59:52;;;;;;;2.33;1.40;;;;;;;;;;5038155;28;20388;-85
2023/05/03 13:02:20;;;;;;;6.35;2.03;;;;;;;;;;5035647;28;20037;-86
2023/05/03 13:04:46;;;;;;;3.13;1.50;;;;;;;;;;5033801;28;20041;-83
2023/05/03 13:07:15;;;;;;;2.75;1.58;;;;;;;;;;5032174;28;20092;-83
2023/05/03 13:09:44;;;;;;;5.53;1.80;;;;;;;;;;5031032;28;20048;-83
2023/05/03 13:12:09;;;;;;;4.93;1.92;;;;;;;;;;5041846;28;20124;-79
2023/05/03 13:14:34;;;;;;;6.10;1.75;;;;;;;;;;5033571;28;20453;-84
2023/05/03 13:17:01;;;;;;;3.28;1.63;;;;;;;;;;5035487;28;20038;-82
2023/05/03 13:19:27;;;;;;;3.63;1.35;;;;;;;;;;5037403;28;20037;-83
2023/05/03 13:21:53;;;;;;;4.28;1.77;;;;;;;;;;5034355;28;20029;-84
2023/05/03 13:24:18;;;;;;;6.15;1.77;;;;;;;;;;5035289;28;20056;-84
2023/05/03 13:26:43;;;;;;;3.92;1.35;;;;;;;;;;5033960;28;20564;-84
2023/05/03 13:29:09;;;;;;;5.68;1.70;;;;;;;;;;5048683;28;20087;-83
2023/05/03 13:31:34;;;;;;;2.70;1.25;;;;;;;;;;5044489;28;20042;-84
2023/05/03 13:33:59;;;;;;;4.15;2.00;;;;;;;;;;5040984;28;20045;-85
2023/05/03 13:36:26;;;;;;;4.60;1.65;;;;;;;;;;5040723;28;20037;-81
2023/05/03 13:38:52;;;;;;;6.30;2.17;;;;;;;;;;5022795;28;20049;-84
2023/05/03 13:41:18;;;;;;;4.53;1.92;;;;;;;;;;5033630;28;20037;-82
2023/05/03 13:43:43;;;;;;;2.50;1.40;;;;;;;;;;5028416;28;20029;-84
2023/05/03 13:46:09;;;;;;;4.47;1.42;;;;;;;;;;5031905;28;20048;-83
2023/05/03 13:48:35;;;;;;;3.08;1.50;;;;;;;;;;5037960;28;20041;-84
2023/05/03 13:51:11;;;;;;;4.75;1.77;;;;;;;;;;5043386;28;20112;-84
2023/05/03 13:53:38;;;;;;;4.63;2.10;;;;;;;;;;5053183;28;20549;-84
2023/05/03 13:56:05;;;;;;;5.43;1.60;;;;;;;;;;5026025;28;20409;-84
2023/05/03 13:58:30;;;;;;;5.30;1.80;;;;;;;;;;5034292;28;20099;-85
2023/05/03 14:00:56;;;;;;;3.03;1.65;;;;;;;;;;5030830;28;20045;-85
2023/05/03 14:03:21;;;;;;;2.55;1.55;;;;;;;;;;5034050;28;20031;-84
2023/05/03 14:05:48;;;;;;;5.35;1.80;;;;;;;;;;5049391;28;20068;-85
2023/05/03 14:08:15;;;;;;;3.75;1.88;;;;;;;;;;5032503;28;20046;-84
2023/05/03 14:10:42;;;;;;;4.88;1.90;;;;;;;;;;5054326;28;20082;-83
2023/05/03 14:13:07;;;;;;;6.30;1.90;;;;;;;;;;5035528;28;20041;-85
2023/05/03 14:15:41;;;;;;;5.88;2.20;;;;;;;;;;5043329;28;20037;-86
2023/05/03 14:18:07;;;;;;;3.00;1.42;;;;;;;;;;5058117;28;20049;-83
2023/05/03 14:20:33;;;;;;;3.58;2.10;;;;;;;;;;5038551;28;20143;-85
2023/05/03 14:22:59;;;;;;;4.32;1.92;;;;;;;;;;5039458;28;20541;-84
2023/05/03 14:25:26;;;;;;;5.55;1.98;;;;;;;;;;5030948;28;20034;-84
2023/05/03 14:27:52;;;;;;;6.82;2.10;;;;;;;;;;5032521;28;20100;-83
2023/05/03 14:30:17;;;;;;;4.90;2.08;;;;;;;;;;5039672;28;20045;-86
2023/05/03 14:32:43;;;;;;;4.35;1.52;;;;;;;;;;5043076;28;20401;-85
2023/05/03 14:35:08;;;;;;;5.85;1.90;;;;;;;;;;5050114;28;20037;-85
2023/05/03 14:37:35;;;;;;;3.25;1.42;;;;;;;;;;5044178;28;20052;-85
2023/05/03 14:40:01;;;;;;;5.20;2.20;;;;;;;;;;5038155;28;20033;-79